الصفحة الرئيسية
METAR-TAF:

METAR-TAF

مطار :

Butterworth, ماليزيا

دائرة عرض: 05-27-58N, خط طول: 100-23-28E, ارتفاع: 2 متر

مراقبة الطقس الحالي

تاريخ ووقت الإصدار 16 دقيقة قبل الساعة 18:00UTC
ريح 2 عقدةمن اتجاهات متغيرة
درجة الحرارة 27°درجة مئوية
الرطوبة 89%
ضغط 1008 hPa
الرؤية: 7000 متر
غيوم قليلة على ارتفاع 2400 قدم

METAR: WMKB 021800Z VRB02KT 7000 FEW024 27/25 Q1008 NOSIG

زمن: 02:16 (18:16 UTC)

توقعات

تاريخ ووقت الإصدار 1ساعة و 16 دقيقة قبل الساعة 17:00UTC
التوقعات صالحة من02 الساعة 18 UTC إلى 03 الساعة 18 UTC
ريح 3 عقدةمن اتجاهات متغيرة
الرؤية: 7000 متر
غيوم قليلة على ارتفاع 2400 قدم
أصبح
من 03 الساعة 00 UTC إلى 03 الساعة 02 UTC
الرؤية: 5000 متر
غيوم قليلة على ارتفاع 2000 قدم
العجاج
أصبح
من 03 الساعة 04 UTC إلى 03 الساعة 06 UTC
ريح 10 عقدة من الجنوب الغربي
الرؤية: 7000 متر

TAF: WMKB 021700Z 0218/0318 VRB03KT 7000 FEW024 BECMG 0300/0302 5000 HZ FEW020 BECMG 0304/0306 23010KT 7000

أرصاد الطقس والتوقعات من أكثر من 4000 مطار (تقارير الطقس للمطار METAR والتنبؤ بالطقس بالمطارTAF).

المحطات المتاحة هي النقط الصفراء والحمراء على الخريطة.

حرك المؤشر فوق النقطة لمعرفة اسم المحطة.

ثم انقر لمعرفة أرصاد وتوقعات الطقس.

لتغيير الخارطة: اضغط على الأزرار الخضراء مع رمز الصليب الأسود للتكبير. على الزر الأخضر مع شرطة للتصغير، أو على الأسهم الخضراء للخرائط المجاورة.


METAR-TAF: